sensor_id;sensor_type;location;lat;lon;timestamp;pressure;altitude;pressure_sealevel;temperature
71463;BMP180;59266;52.608;13.260;2024-02-21T00:02:20;101642.00;;;8.50
71463;BMP180;59266;52.608;13.260;2024-02-21T00:04:47;101639.00;;;8.50
71463;BMP180;59266;52.608;13.260;2024-02-21T00:07:14;101634.00;;;8.50
71463;BMP180;59266;52.608;13.260;2024-02-21T00:09:41;101628.00;;;8.30
71463;BMP180;59266;52.608;13.260;2024-02-21T00:12:08;101625.00;;;8.40
71463;BMP180;59266;52.608;13.260;2024-02-21T00:14:34;101623.00;;;8.30
71463;BMP180;59266;52.608;13.260;2024-02-21T00:17:01;101616.00;;;8.30
71463;BMP180;59266;52.608;13.260;2024-02-21T00:19:27;101629.00;;;8.30
71463;BMP180;59266;52.608;13.260;2024-02-21T00:25:17;101624.00;;;8.20
71463;BMP180;59266;52.608;13.260;2024-02-21T00:27:44;101625.00;;;8.30
71463;BMP180;59266;52.608;13.260;2024-02-21T00:30:11;101609.00;;;8.30
71463;BMP180;59266;52.608;13.260;2024-02-21T00:32:37;101620.00;;;8.30
71463;BMP180;59266;52.608;13.260;2024-02-21T00:35:04;101607.00;;;8.40
71463;BMP180;59266;52.608;13.260;2024-02-21T00:37:31;101615.00;;;8.40
71463;BMP180;59266;52.608;13.260;2024-02-21T00:39:58;101594.00;;;8.40
71463;BMP180;59266;52.608;13.260;2024-02-21T00:42:24;101587.00;;;8.30
71463;BMP180;59266;52.608;13.260;2024-02-21T00:44:54;101605.00;;;8.30
71463;BMP180;59266;52.608;13.260;2024-02-21T00:47:21;101600.00;;;8.30
71463;BMP180;59266;52.608;13.260;2024-02-21T00:49:47;101595.00;;;8.30
71463;BMP180;59266;52.608;13.260;2024-02-21T00:52:14;101590.00;;;8.40
71463;BMP180;59266;52.608;13.260;2024-02-21T00:54:41;101595.00;;;8.30
71463;BMP180;59266;52.608;13.260;2024-02-21T00:57:18;101589.00;;;8.30
71463;BMP180;59266;52.608;13.260;2024-02-21T00:59:45;101592.00;;;8.30
71463;BMP180;59266;52.608;13.260;2024-02-21T01:02:12;101594.00;;;8.30
71463;BMP180;59266;52.608;13.260;2024-02-21T01:04:39;101583.00;;;8.30
71463;BMP180;59266;52.608;13.260;2024-02-21T01:07:06;101577.00;;;8.30
71463;BMP180;59266;52.608;13.260;2024-02-21T01:09:32;101588.00;;;8.30
71463;BMP180;59266;52.608;13.260;2024-02-21T01:11:59;101578.00;;;8.30
71463;BMP180;59266;52.608;13.260;2024-02-21T01:14:25;101586.00;;;8.30
71463;BMP180;59266;52.608;13.260;2024-02-21T01:16:52;101584.00;;;8.40
71463;BMP180;59266;52.608;13.260;2024-02-21T01:19:19;101570.00;;;8.40
71463;BMP180;59266;52.608;13.260;2024-02-21T01:21:51;101564.00;;;8.50
71463;BMP180;59266;52.608;13.260;2024-02-21T01:24:18;101560.00;;;8.50
71463;BMP180;59266;52.608;13.260;2024-02-21T01:26:44;101570.00;;;8.40
71463;BMP180;59266;52.608;13.260;2024-02-21T01:29:11;101556.00;;;8.40
71463;BMP180;59266;52.608;13.260;2024-02-21T01:31:37;101560.00;;;8.40
71463;BMP180;59266;52.608;13.260;2024-02-21T01:34:04;101555.00;;;8.40
71463;BMP180;59266;52.608;13.260;2024-02-21T01:36:31;101557.00;;;8.50
71463;BMP180;59266;52.608;13.260;2024-02-21T01:38:57;101559.00;;;8.50
71463;BMP180;59266;52.608;13.260;2024-02-21T01:41:24;101556.00;;;8.40
71463;BMP180;59266;52.608;13.260;2024-02-21T01:43:54;101552.00;;;8.40
71463;BMP180;59266;52.608;13.260;2024-02-21T01:46:20;101556.00;;;8.40
71463;BMP180;59266;52.608;13.260;2024-02-21T01:48:47;101547.00;;;8.40
71463;BMP180;59266;52.608;13.260;2024-02-21T01:51:14;101538.00;;;8.40
71463;BMP180;59266;52.608;13.260;2024-02-21T01:53:43;101552.00;;;8.50
71463;BMP180;59266;52.608;13.260;2024-02-21T01:56:10;101537.00;;;8.50
71463;BMP180;59266;52.608;13.260;2024-02-21T01:58:37;101551.00;;;8.50
71463;BMP180;59266;52.608;13.260;2024-02-21T02:01:06;101550.00;;;8.40
71463;BMP180;59266;52.608;13.260;2024-02-21T02:03:33;101539.00;;;8.50
71463;BMP180;59266;52.608;13.260;2024-02-21T02:05:59;101535.00;;;8.40
71463;BMP180;59266;52.608;13.260;2024-02-21T02:08:26;101531.00;;;8.50
71463;BMP180;59266;52.608;13.260;2024-02-21T02:10:53;101530.00;;;8.40
71463;BMP180;59266;52.608;13.260;2024-02-21T02:13:20;101540.00;;;8.30
71463;BMP180;59266;52.608;13.260;2024-02-21T02:15:48;101532.00;;;8.30
71463;BMP180;59266;52.608;13.260;2024-02-21T02:18:16;101521.00;;;8.40
71463;BMP180;59266;52.608;13.260;2024-02-21T02:20:44;101526.00;;;8.40
71463;BMP180;59266;52.608;13.260;2024-02-21T02:23:26;101524.00;;;8.30
71463;BMP180;59266;52.608;13.260;2024-02-21T02:25:54;101519.00;;;8.30
71463;BMP180;59266;52.608;13.260;2024-02-21T02:28:21;101524.00;;;8.20
71463;BMP180;59266;52.608;13.260;2024-02-21T02:30:48;101514.00;;;8.20
71463;BMP180;59266;52.608;13.260;2024-02-21T02:33:15;101512.00;;;8.20
71463;BMP180;59266;52.608;13.260;2024-02-21T02:35:44;101508.00;;;8.10
71463;BMP180;59266;52.608;13.260;2024-02-21T02:38:11;101505.00;;;8.30
71463;BMP180;59266;52.608;13.260;2024-02-21T02:40:42;101504.00;;;8.10
71463;BMP180;59266;52.608;13.260;2024-02-21T02:43:09;101504.00;;;8.10
71463;BMP180;59266;52.608;13.260;2024-02-21T02:45:36;101497.00;;;8.00
71463;BMP180;59266;52.608;13.260;2024-02-21T02:48:03;101489.00;;;8.00
71463;BMP180;59266;52.608;13.260;2024-02-21T02:50:30;101496.00;;;8.00
71463;BMP180;59266;52.608;13.260;2024-02-21T02:52:57;101490.00;;;7.90
71463;BMP180;59266;52.608;13.260;2024-02-21T02:55:24;101490.00;;;7.90
71463;BMP180;59266;52.608;13.260;2024-02-21T02:57:53;101479.00;;;7.80
71463;BMP180;59266;52.608;13.260;2024-02-21T03:00:19;101472.00;;;7.80
71463;BMP180;59266;52.608;13.260;2024-02-21T03:02:48;101477.00;;;7.70
71463;BMP180;59266;52.608;13.260;2024-02-21T03:05:17;101468.00;;;7.80
71463;BMP180;59266;52.608;13.260;2024-02-21T03:07:44;101471.00;;;7.80
71463;BMP180;59266;52.608;13.260;2024-02-21T03:10:12;101464.00;;;7.80
71463;BMP180;59266;52.608;13.260;2024-02-21T03:12:39;101463.00;;;7.70
71463;BMP180;59266;52.608;13.260;2024-02-21T03:15:06;101468.00;;;7.80
71463;BMP180;59266;52.608;13.260;2024-02-21T03:17:33;101466.00;;;7.70
71463;BMP180;59266;52.608;13.260;2024-02-21T03:23:49;101451.00;;;7.70
71463;BMP180;59266;52.608;13.260;2024-02-21T03:26:16;101460.00;;;7.70
71463;BMP180;59266;52.608;13.260;2024-02-21T03:28:44;101454.00;;;7.60
71463;BMP180;59266;52.608;13.260;2024-02-21T03:31:13;101451.00;;;7.80
71463;BMP180;59266;52.608;13.260;2024-02-21T03:33:42;101450.00;;;7.80
71463;BMP180;59266;52.608;13.260;2024-02-21T03:36:15;101443.00;;;7.70
71463;BMP180;59266;52.608;13.260;2024-02-21T03:38:44;101437.00;;;7.70
71463;BMP180;59266;52.608;13.260;2024-02-21T03:41:11;101430.00;;;7.70
71463;BMP180;59266;52.608;13.260;2024-02-21T03:43:38;101431.00;;;7.70
71463;BMP180;59266;52.608;13.260;2024-02-21T03:46:10;101433.00;;;7.70
71463;BMP180;59266;52.608;13.260;2024-02-21T03:48:37;101418.00;;;7.60
71463;BMP180;59266;52.608;13.260;2024-02-21T03:51:04;101421.00;;;7.70
71463;BMP180;59266;52.608;13.260;2024-02-21T03:53:31;101431.00;;;7.60
71463;BMP180;59266;52.608;13.260;2024-02-21T03:56:00;101427.00;;;7.70
71463;BMP180;59266;52.608;13.260;2024-02-21T03:58:32;101422.00;;;7.70
71463;BMP180;59266;52.608;13.260;2024-02-21T04:01:03;101417.00;;;7.60
71463;BMP180;59266;52.608;13.260;2024-02-21T04:03:33;101415.00;;;7.60
71463;BMP180;59266;52.608;13.260;2024-02-21T04:06:00;101418.00;;;7.60
71463;BMP180;59266;52.608;13.260;2024-02-21T04:08:27;101397.00;;;7.70
71463;BMP180;59266;52.608;13.260;2024-02-21T04:10:53;101394.00;;;7.70
71463;BMP180;59266;52.608;13.260;2024-02-21T04:13:20;101401.00;;;7.70
71463;BMP180;59266;52.608;13.260;2024-02-21T04:15:48;101390.00;;;7.80
71463;BMP180;59266;52.608;13.260;2024-02-21T04:18:15;101388.00;;;7.80
71463;BMP180;59266;52.608;13.260;2024-02-21T04:20:42;101384.00;;;7.70
71463;BMP180;59266;52.608;13.260;2024-02-21T04:23:08;101367.00;;;7.70
71463;BMP180;59266;52.608;13.260;2024-02-21T04:25:35;101379.00;;;7.80
71463;BMP180;59266;52.608;13.260;2024-02-21T04:28:02;101365.00;;;7.80
71463;BMP180;59266;52.608;13.260;2024-02-21T04:30:29;101363.00;;;7.80
71463;BMP180;59266;52.608;13.260;2024-02-21T04:32:56;101362.00;;;7.70
71463;BMP180;59266;52.608;13.260;2024-02-21T04:35:22;101357.00;;;7.70
71463;BMP180;59266;52.608;13.260;2024-02-21T04:37:49;101352.00;;;7.70
71463;BMP180;59266;52.608;13.260;2024-02-21T04:40:16;101332.00;;;7.80
71463;BMP180;59266;52.608;13.260;2024-02-21T04:42:43;101334.00;;;7.70
71463;BMP180;59266;52.608;13.260;2024-02-21T04:45:10;101334.00;;;7.80
71463;BMP180;59266;52.608;13.260;2024-02-21T04:47:37;101327.00;;;7.80
71463;BMP180;59266;52.608;13.260;2024-02-21T04:50:04;101324.00;;;7.80
71463;BMP180;59266;52.608;13.260;2024-02-21T04:52:30;101329.00;;;7.80
71463;BMP180;59266;52.608;13.260;2024-02-21T04:55:02;101326.00;;;7.80
71463;BMP180;59266;52.608;13.260;2024-02-21T04:57:31;101323.00;;;7.90
71463;BMP180;59266;52.608;13.260;2024-02-21T04:59:58;101330.00;;;7.90
71463;BMP180;59266;52.608;13.260;2024-02-21T05:02:24;101330.00;;;7.80
71463;BMP180;59266;52.608;13.260;2024-02-21T05:04:53;101330.00;;;7.80
71463;BMP180;59266;52.608;13.260;2024-02-21T05:07:19;101330.00;;;7.70
71463;BMP180;59266;52.608;13.260;2024-02-21T05:09:46;101322.00;;;7.80
71463;BMP180;59266;52.608;13.260;2024-02-21T05:12:13;101318.00;;;7.80
71463;BMP180;59266;52.608;13.260;2024-02-21T05:14:40;101320.00;;;7.80
71463;BMP180;59266;52.608;13.260;2024-02-21T05:17:06;101315.00;;;7.80
71463;BMP180;59266;52.608;13.260;2024-02-21T05:19:33;101314.00;;;7.90
71463;BMP180;59266;52.608;13.260;2024-02-21T05:22:03;101326.00;;;7.80
71463;BMP180;59266;52.608;13.260;2024-02-21T05:24:30;101316.00;;;7.80
71463;BMP180;59266;52.608;13.260;2024-02-21T05:26:57;101312.00;;;7.80
71463;BMP180;59266;52.608;13.260;2024-02-21T05:29:23;101321.00;;;7.80
71463;BMP180;59266;52.608;13.260;2024-02-21T05:34:19;101315.00;;;7.90
71463;BMP180;59266;52.608;13.260;2024-02-21T05:36:47;101319.00;;;7.70
71463;BMP180;59266;52.608;13.260;2024-02-21T05:39:14;101307.00;;;7.80
71463;BMP180;59266;52.608;13.260;2024-02-21T05:41:41;101316.00;;;7.80
71463;BMP180;59266;52.608;13.260;2024-02-21T05:44:07;101314.00;;;7.80
71463;BMP180;59266;52.608;13.260;2024-02-21T05:46:34;101303.00;;;7.80
71463;BMP180;59266;52.608;13.260;2024-02-21T05:49:01;101296.00;;;7.80
71463;BMP180;59266;52.608;13.260;2024-02-21T05:51:32;101299.00;;;7.80
71463;BMP180;59266;52.608;13.260;2024-02-21T05:53:59;101300.00;;;7.90
71463;BMP180;59266;52.608;13.260;2024-02-21T05:56:26;101294.00;;;7.80
71463;BMP180;59266;52.608;13.260;2024-02-21T05:58:52;101291.00;;;7.80
71463;BMP180;59266;52.608;13.260;2024-02-21T06:01:19;101291.00;;;7.70
71463;BMP180;59266;52.608;13.260;2024-02-21T06:03:47;101292.00;;;7.80
71463;BMP180;59266;52.608;13.260;2024-02-21T06:06:14;101283.00;;;7.70
71463;BMP180;59266;52.608;13.260;2024-02-21T06:08:41;101282.00;;;7.80
71463;BMP180;59266;52.608;13.260;2024-02-21T06:11:08;101286.00;;;7.90
71463;BMP180;59266;52.608;13.260;2024-02-21T06:13:38;101280.00;;;7.80
71463;BMP180;59266;52.608;13.260;2024-02-21T06:16:06;101281.00;;;7.80
71463;BMP180;59266;52.608;13.260;2024-02-21T06:18:34;101267.00;;;7.90
71463;BMP180;59266;52.608;13.260;2024-02-21T06:21:01;101270.00;;;7.80
71463;BMP180;59266;52.608;13.260;2024-02-21T06:27:18;101284.00;;;7.80
71463;BMP180;59266;52.608;13.260;2024-02-21T06:29:45;101283.00;;;7.90
71463;BMP180;59266;52.608;13.260;2024-02-21T06:32:12;101289.00;;;7.80
71463;BMP180;59266;52.608;13.260;2024-02-21T06:34:38;101293.00;;;7.80
71463;BMP180;59266;52.608;13.260;2024-02-21T06:37:05;101286.00;;;7.90
71463;BMP180;59266;52.608;13.260;2024-02-21T06:39:34;101295.00;;;7.90
71463;BMP180;59266;52.608;13.260;2024-02-21T06:42:03;101292.00;;;8.00
71463;BMP180;59266;52.608;13.260;2024-02-21T06:44:30;101303.00;;;8.00
71463;BMP180;59266;52.608;13.260;2024-02-21T06:46:58;101303.00;;;8.00
71463;BMP180;59266;52.608;13.260;2024-02-21T06:49:26;101299.00;;;8.00
71463;BMP180;59266;52.608;13.260;2024-02-21T06:51:53;101294.00;;;8.00
71463;BMP180;59266;52.608;13.260;2024-02-21T06:54:19;101291.00;;;8.00
71463;BMP180;59266;52.608;13.260;2024-02-21T06:56:46;101293.00;;;8.00
71463;BMP180;59266;52.608;13.260;2024-02-21T06:59:13;101292.00;;;8.10
71463;BMP180;59266;52.608;13.260;2024-02-21T07:01:47;101291.00;;;8.10
71463;BMP180;59266;52.608;13.260;2024-02-21T07:04:15;101291.00;;;8.10
71463;BMP180;59266;52.608;13.260;2024-02-21T07:06:42;101290.00;;;8.20
71463;BMP180;59266;52.608;13.260;2024-02-21T07:09:09;101296.00;;;8.10
71463;BMP180;59266;52.608;13.260;2024-02-21T07:11:35;101296.00;;;8.10
71463;BMP180;59266;52.608;13.260;2024-02-21T07:14:02;101294.00;;;8.20
71463;BMP180;59266;52.608;13.260;2024-02-21T07:16:29;101285.00;;;8.20
71463;BMP180;59266;52.608;13.260;2024-02-21T07:18:56;101288.00;;;8.20
71463;BMP180;59266;52.608;13.260;2024-02-21T07:21:22;101295.00;;;8.20
71463;BMP180;59266;52.608;13.260;2024-02-21T07:23:51;101285.00;;;8.20
71463;BMP180;59266;52.608;13.260;2024-02-21T07:26:17;101282.00;;;8.30
71463;BMP180;59266;52.608;13.260;2024-02-21T07:28:44;101288.00;;;8.30
71463;BMP180;59266;52.608;13.260;2024-02-21T07:31:10;101275.00;;;8.40
71463;BMP180;59266;52.608;13.260;2024-02-21T07:33:37;101291.00;;;8.40
71463;BMP180;59266;52.608;13.260;2024-02-21T07:36:07;101279.00;;;8.30
71463;BMP180;59266;52.608;13.260;2024-02-21T07:38:34;101274.00;;;8.40
71463;BMP180;59266;52.608;13.260;2024-02-21T07:41:01;101277.00;;;8.40
71463;BMP180;59266;52.608;13.260;2024-02-21T07:43:27;101278.00;;;8.50
71463;BMP180;59266;52.608;13.260;2024-02-21T07:45:57;101285.00;;;8.50
71463;BMP180;59266;52.608;13.260;2024-02-21T07:48:24;101275.00;;;8.50
71463;BMP180;59266;52.608;13.260;2024-02-21T07:50:53;101277.00;;;8.50
71463;BMP180;59266;52.608;13.260;2024-02-21T07:53:20;101285.00;;;8.50
71463;BMP180;59266;52.608;13.260;2024-02-21T07:55:47;101279.00;;;8.50
71463;BMP180;59266;52.608;13.260;2024-02-21T07:58:14;101275.00;;;8.60
71463;BMP180;59266;52.608;13.260;2024-02-21T08:00:40;101281.00;;;8.60
71463;BMP180;59266;52.608;13.260;2024-02-21T08:03:07;101280.00;;;8.60
71463;BMP180;59266;52.608;13.260;2024-02-21T08:05:35;101273.00;;;8.70
71463;BMP180;59266;52.608;13.260;2024-02-21T08:08:05;101275.00;;;8.70
71463;BMP180;59266;52.608;13.260;2024-02-21T08:10:31;101285.00;;;8.80
71463;BMP180;59266;52.608;13.260;2024-02-21T08:12:59;101264.00;;;8.80
71463;BMP180;59266;52.608;13.260;2024-02-21T08:15:25;101275.00;;;8.80
71463;BMP180;59266;52.608;13.260;2024-02-21T08:17:56;101276.00;;;8.80
71463;BMP180;59266;52.608;13.260;2024-02-21T08:20:29;101281.00;;;8.70
71463;BMP180;59266;52.608;13.260;2024-02-21T08:22:56;101264.00;;;8.80
71463;BMP180;59266;52.608;13.260;2024-02-21T08:25:23;101264.00;;;8.90
71463;BMP180;59266;52.608;13.260;2024-02-21T08:27:49;101254.00;;;9.00
71463;BMP180;59266;52.608;13.260;2024-02-21T08:30:18;101253.00;;;9.10
71463;BMP180;59266;52.608;13.260;2024-02-21T08:32:44;101259.00;;;9.20
71463;BMP180;59266;52.608;13.260;2024-02-21T08:35:11;101267.00;;;9.20
71463;BMP180;59266;52.608;13.260;2024-02-21T08:37:39;101261.00;;;9.30
71463;BMP180;59266;52.608;13.260;2024-02-21T08:40:06;101273.00;;;9.30
71463;BMP180;59266;52.608;13.260;2024-02-21T08:42:36;101263.00;;;9.30
71463;BMP180;59266;52.608;13.260;2024-02-21T08:45:06;101270.00;;;9.30
71463;BMP180;59266;52.608;13.260;2024-02-21T08:47:33;101263.00;;;9.30
71463;BMP180;59266;52.608;13.260;2024-02-21T08:50:02;101255.00;;;9.30
71463;BMP180;59266;52.608;13.260;2024-02-21T08:52:53;101261.00;;;9.30
71463;BMP180;59266;52.608;13.260;2024-02-21T08:55:22;101253.00;;;9.50
71463;BMP180;59266;52.608;13.260;2024-02-21T08:57:50;101273.00;;;9.30
71463;BMP180;59266;52.608;13.260;2024-02-21T09:00:17;101257.00;;;9.40
71463;BMP180;59266;52.608;13.260;2024-02-21T09:02:44;101261.00;;;9.30
71463;BMP180;59266;52.608;13.260;2024-02-21T09:05:11;101270.00;;;9.30
71463;BMP180;59266;52.608;13.260;2024-02-21T09:07:38;101259.00;;;9.50
71463;BMP180;59266;52.608;13.260;2024-02-21T09:10:05;101253.00;;;9.60
71463;BMP180;59266;52.608;13.260;2024-02-21T09:12:33;101270.00;;;9.60
71463;BMP180;59266;52.608;13.260;2024-02-21T09:14:59;101248.00;;;9.60
71463;BMP180;59266;52.608;13.260;2024-02-21T09:17:26;101255.00;;;9.60
71463;BMP180;59266;52.608;13.260;2024-02-21T09:19:56;101246.00;;;9.60
71463;BMP180;59266;52.608;13.260;2024-02-21T09:22:26;101253.00;;;9.60
71463;BMP180;59266;52.608;13.260;2024-02-21T09:24:53;101253.00;;;9.80
71463;BMP180;59266;52.608;13.260;2024-02-21T09:27:19;101236.00;;;10.00
71463;BMP180;59266;52.608;13.260;2024-02-21T09:29:46;101244.00;;;10.10
71463;BMP180;59266;52.608;13.260;2024-02-21T09:32:13;101236.00;;;10.30
71463;BMP180;59266;52.608;13.260;2024-02-21T09:34:40;101223.00;;;10.40
71463;BMP180;59266;52.608;13.260;2024-02-21T09:37:07;101238.00;;;10.40
71463;BMP180;59266;52.608;13.260;2024-02-21T09:39:34;101232.00;;;10.40
71463;BMP180;59266;52.608;13.260;2024-02-21T09:42:05;101235.00;;;10.20
71463;BMP180;59266;52.608;13.260;2024-02-21T09:44:36;101245.00;;;10.20
71463;BMP180;59266;52.608;13.260;2024-02-21T09:47:07;101236.00;;;10.10
71463;BMP180;59266;52.608;13.260;2024-02-21T09:49:36;101247.00;;;10.30
71463;BMP180;59266;52.608;13.260;2024-02-21T09:52:07;101246.00;;;10.30
71463;BMP180;59266;52.608;13.260;2024-02-21T09:54:34;101247.00;;;10.30
71463;BMP180;59266;52.608;13.260;2024-02-21T09:57:01;101245.00;;;10.40
71463;BMP180;59266;52.608;13.260;2024-02-21T09:59:30;101230.00;;;10.40
71463;BMP180;59266;52.608;13.260;2024-02-21T10:01:57;101239.00;;;10.40
71463;BMP180;59266;52.608;13.260;2024-02-21T10:04:26;101231.00;;;10.50
71463;BMP180;59266;52.608;13.260;2024-02-21T10:06:56;101236.00;;;10.50
71463;BMP180;59266;52.608;13.260;2024-02-21T10:09:27;101243.00;;;10.60
71463;BMP180;59266;52.608;13.260;2024-02-21T10:11:56;101238.00;;;10.40
71463;BMP180;59266;52.608;13.260;2024-02-21T10:14:23;101230.00;;;10.50
71463;BMP180;59266;52.608;13.260;2024-02-21T10:16:57;101240.00;;;10.60
71463;BMP180;59266;52.608;13.260;2024-02-21T10:19:26;101240.00;;;10.80
71463;BMP180;59266;52.608;13.260;2024-02-21T10:22:04;101240.00;;;10.80
71463;BMP180;59266;52.608;13.260;2024-02-21T10:24:31;101247.00;;;10.60
71463;BMP180;59266;52.608;13.260;2024-02-21T10:27:03;101244.00;;;10.70
71463;BMP180;59266;52.608;13.260;2024-02-21T10:29:31;101249.00;;;10.80
71463;BMP180;59266;52.608;13.260;2024-02-21T10:32:08;101249.00;;;10.80
71463;BMP180;59266;52.608;13.260;2024-02-21T10:34:36;101265.00;;;10.60
71463;BMP180;59266;52.608;13.260;2024-02-21T10:37:05;101252.00;;;10.90
71463;BMP180;59266;52.608;13.260;2024-02-21T10:39:32;101256.00;;;10.70
71463;BMP180;59266;52.608;13.260;2024-02-21T10:42:02;101236.00;;;10.50
71463;BMP180;59266;52.608;13.260;2024-02-21T10:44:33;101249.00;;;10.50
71463;BMP180;59266;52.608;13.260;2024-02-21T10:47:10;101231.00;;;10.50
71463;BMP180;59266;52.608;13.260;2024-02-21T10:49:39;101235.00;;;10.40
71463;BMP180;59266;52.608;13.260;2024-02-21T10:52:35;101235.00;;;10.20
71463;BMP180;59266;52.608;13.260;2024-02-21T10:55:27;101234.00;;;10.20
71463;BMP180;59266;52.608;13.260;2024-02-21T10:57:58;101214.00;;;10.50
71463;BMP180;59266;52.608;13.260;2024-02-21T11:00:25;101226.00;;;10.50
71463;BMP180;59266;52.608;13.260;2024-02-21T11:02:57;101206.00;;;10.60
71463;BMP180;59266;52.608;13.260;2024-02-21T11:05:24;101208.00;;;10.70
71463;BMP180;59266;52.608;13.260;2024-02-21T11:07:52;101196.00;;;10.80
71463;BMP180;59266;52.608;13.260;2024-02-21T11:10:25;101188.00;;;11.00
71463;BMP180;59266;52.608;13.260;2024-02-21T11:13:10;101179.00;;;11.40
71463;BMP180;59266;52.608;13.260;2024-02-21T11:15:37;101180.00;;;11.90
71463;BMP180;59266;52.608;13.260;2024-02-21T11:18:05;101178.00;;;11.90
71463;BMP180;59266;52.608;13.260;2024-02-21T11:20:36;101165.00;;;12.40
71463;BMP180;59266;52.608;13.260;2024-02-21T11:23:05;101163.00;;;11.90
71463;BMP180;59266;52.608;13.260;2024-02-21T11:25:35;101158.00;;;12.10
71463;BMP180;59266;52.608;13.260;2024-02-21T11:28:05;101164.00;;;12.00
71463;BMP180;59266;52.608;13.260;2024-02-21T11:30:37;101161.00;;;11.80
71463;BMP180;59266;52.608;13.260;2024-02-21T11:33:07;101157.00;;;12.10
71463;BMP180;59266;52.608;13.260;2024-02-21T11:35:35;101134.00;;;12.60
71463;BMP180;59266;52.608;13.260;2024-02-21T11:38:10;101146.00;;;13.40
71463;BMP180;59266;52.608;13.260;2024-02-21T11:40:39;101142.00;;;13.40
71463;BMP180;59266;52.608;13.260;2024-02-21T11:43:07;101134.00;;;13.60
71463;BMP180;59266;52.608;13.260;2024-02-21T11:45:34;101129.00;;;13.60
71463;BMP180;59266;52.608;13.260;2024-02-21T11:48:01;101129.00;;;13.40
71463;BMP180;59266;52.608;13.260;2024-02-21T11:50:34;101112.00;;;12.60
71463;BMP180;59266;52.608;13.260;2024-02-21T11:53:01;101125.00;;;12.50
71463;BMP180;59266;52.608;13.260;2024-02-21T11:55:29;101109.00;;;12.70
71463;BMP180;59266;52.608;13.260;2024-02-21T11:57:55;101121.00;;;13.50
71463;BMP180;59266;52.608;13.260;2024-02-21T12:00:22;101123.00;;;13.20
71463;BMP180;59266;52.608;13.260;2024-02-21T12:02:51;101104.00;;;12.50
71463;BMP180;59266;52.608;13.260;2024-02-21T12:05:18;101102.00;;;12.70
71463;BMP180;59266;52.608;13.260;2024-02-21T12:07:45;101111.00;;;12.90
71463;BMP180;59266;52.608;13.260;2024-02-21T12:10:13;101104.00;;;13.10
71463;BMP180;59266;52.608;13.260;2024-02-21T12:12:40;101091.00;;;12.80
71463;BMP180;59266;52.608;13.260;2024-02-21T12:15:08;101086.00;;;12.70
71463;BMP180;59266;52.608;13.260;2024-02-21T12:17:39;101101.00;;;12.70
71463;BMP180;59266;52.608;13.260;2024-02-21T12:20:06;101092.00;;;12.90
71463;BMP180;59266;52.608;13.260;2024-02-21T12:22:39;101078.00;;;13.40
71463;BMP180;59266;52.608;13.260;2024-02-21T12:25:22;101058.00;;;13.70
71463;BMP180;59266;52.608;13.260;2024-02-21T12:27:49;101072.00;;;14.20
71463;BMP180;59266;52.608;13.260;2024-02-21T12:30:16;101064.00;;;13.60
71463;BMP180;59266;52.608;13.260;2024-02-21T12:32:46;101060.00;;;13.30
71463;BMP180;59266;52.608;13.260;2024-02-21T12:35:15;101053.00;;;13.40
71463;BMP180;59266;52.608;13.260;2024-02-21T12:37:42;101046.00;;;14.00
71463;BMP180;59266;52.608;13.260;2024-02-21T12:40:12;101049.00;;;13.80
71463;BMP180;59266;52.608;13.260;2024-02-21T12:42:40;101048.00;;;13.70
71463;BMP180;59266;52.608;13.260;2024-02-21T12:45:07;101051.00;;;13.90
71463;BMP180;59266;52.608;13.260;2024-02-21T12:47:34;101043.00;;;14.00
71463;BMP180;59266;52.608;13.260;2024-02-21T12:50:01;101045.00;;;14.00
71463;BMP180;59266;52.608;13.260;2024-02-21T12:52:30;101042.00;;;14.10
71463;BMP180;59266;52.608;13.260;2024-02-21T12:54:58;101026.00;;;13.90
71463;BMP180;59266;52.608;13.260;2024-02-21T12:57:25;101041.00;;;14.00
71463;BMP180;59266;52.608;13.260;2024-02-21T12:59:53;101026.00;;;14.10
71463;BMP180;59266;52.608;13.260;2024-02-21T13:02:20;101031.00;;;13.90
71463;BMP180;59266;52.608;13.260;2024-02-21T13:04:47;101022.00;;;14.30
71463;BMP180;59266;52.608;13.260;2024-02-21T13:07:14;101019.00;;;14.10
71463;BMP180;59266;52.608;13.260;2024-02-21T13:09:41;101024.00;;;14.10
71463;BMP180;59266;52.608;13.260;2024-02-21T13:12:08;101021.00;;;14.30
71463;BMP180;59266;52.608;13.260;2024-02-21T13:14:35;101021.00;;;14.30
71463;BMP180;59266;52.608;13.260;2024-02-21T13:17:05;101003.00;;;14.10
71463;BMP180;59266;52.608;13.260;2024-02-21T13:19:32;101000.00;;;14.10
71463;BMP180;59266;52.608;13.260;2024-02-21T13:21:59;100997.00;;;14.00
71463;BMP180;59266;52.608;13.260;2024-02-21T13:24:26;100999.00;;;14.00
71463;BMP180;59266;52.608;13.260;2024-02-21T13:26:53;100993.00;;;13.70
71463;BMP180;59266;52.608;13.260;2024-02-21T13:29:20;100991.00;;;14.20
71463;BMP180;59266;52.608;13.260;2024-02-21T13:31:47;100999.00;;;13.80
71463;BMP180;59266;52.608;13.260;2024-02-21T13:34:14;100993.00;;;13.80
71463;BMP180;59266;52.608;13.260;2024-02-21T13:36:41;100992.00;;;13.50
71463;BMP180;59266;52.608;13.260;2024-02-21T13:39:15;100994.00;;;13.60
71463;BMP180;59266;52.608;13.260;2024-02-21T13:41:43;100989.00;;;14.10
71463;BMP180;59266;52.608;13.260;2024-02-21T13:44:10;100986.00;;;14.00
71463;BMP180;59266;52.608;13.260;2024-02-21T13:46:37;100999.00;;;13.80
71463;BMP180;59266;52.608;13.260;2024-02-21T13:49:10;100996.00;;;13.80
71463;BMP180;59266;52.608;13.260;2024-02-21T13:51:37;100992.00;;;13.60
71463;BMP180;59266;52.608;13.260;2024-02-21T13:54:04;100996.00;;;13.40
71463;BMP180;59266;52.608;13.260;2024-02-21T13:56:31;100988.00;;;13.20
71463;BMP180;59266;52.608;13.260;2024-02-21T13:58:58;100981.00;;;13.10
71463;BMP180;59266;52.608;13.260;2024-02-21T14:01:26;100985.00;;;13.10
71463;BMP180;59266;52.608;13.260;2024-02-21T14:03:55;100986.00;;;13.10
71463;BMP180;59266;52.608;13.260;2024-02-21T14:06:24;100989.00;;;12.90
71463;BMP180;59266;52.608;13.260;2024-02-21T14:08:51;100990.00;;;13.00
71463;BMP180;59266;52.608;13.260;2024-02-21T14:11:18;100988.00;;;13.00